No requiere especial atencion con respecto al clima.   -   No hay Alarmas

Informes de METAR cercanos

 

LEXJ - Santander/Parayas, Spain
Distance from station: ESE 6km
Actualización: 22/10/2018 07:30
Mist, Muy nuboso
Mist, Muy nuboso
 Viento del OSO
Viento: OSO 6 km/h
Temperatura: 15°C
Rocío: 15°C
Humedad: 100%
Barómetro: 1026 hPa
Resumen: Mist
Clouds: Muy nuboso
Visibility: 3 km
Cloud details: Few Clouds 701 m
Muy nuboso 1036 m
2018/10/22 05:30 LEXJ 220530Z 24003KT 3300 BR FEW023 BKN034 15/15 Q1026
LEBB - Bilbao/Sondica, Spain
Distance from station: ESE 80km
Actualización: 22/10/2018 07:30
Muy nuboso
Muy nuboso
 Viento del NO
Viento: NO 13 km/h
Temperatura: 16°C
Rocío: 15°C
Humedad: 94%
Barómetro: 1025 hPa
Clouds: Muy nuboso
Visibility: 9 km
Cloud details: Few Clouds 305 m
Muy nuboso 1097 m
2018/10/22 05:30 LEBB 220530Z 31007KT 9000 FEW010 BKN036 16/15 Q1025 TEMPO 3000 BR BKN012
 
LEBL - Barcelona Airpor, Spain
Distance from station: ESE 726km
Actualización: 22/10/2018 07:30
Few Clouds
Few Clouds
 Viento del NO
Viento: NO 11 km/h
Temperatura: 17°C
Rocío: 14°C
Humedad: 83%
Barómetro: 1019 hPa
Clouds: Few Clouds
Visibility: 10 km
Cloud details: Few Clouds 549 m
2018/10/22 05:30 LEBL 220530Z 32006KT 280V350 9999 FEW018 17/14 Q1019 NOSIG
LEMD - Madrid/Barajas, Spain
Distance from station: S 325km
Actualización: 22/10/2018 07:30
Despejado
Despejado
 Viento del NNO
Viento: NNO 6 km/h
Temperatura: 11°C
Rocío: 11°C
Humedad: 100%
Barómetro: 1022 hPa
Resumen: Despejado
Visibility: greater than 10 km
2018/10/22 05:30 LEMD 220530Z 34003KT CAVOK 11/11 Q1022 NOSIG
 
LPPT - Lisbon/Portela, Portugal
Distance from station: SO 663km
Actualización: 22/10/2018 07:30
Few Clouds
Few Clouds
 Viento del ENE
Viento: ENE 6 km/h
Temperatura: 13°C
Rocío: 13°C
Humedad: 100%
Barómetro: 1020 hPa
Clouds: Few Clouds
Visibility: 10 km
Cloud details: Few Clouds 152 m
2018/10/22 05:30 LPPT 220530Z 06003KT 9999 FEW005 13/13 Q1020
LECO - La Coruna/Alvedr, Spain
Distance from station: O 349km
Actualización: 22/10/2018 07:30
Patches of fog, Parcialmente nuboso
Patches of fog, Parcialmente nuboso
 Viento del calm
Viento: Calma
Temperatura: 13°C
Rocío: 12°C
Humedad: 94%
Barómetro: 1024 hPa
Resumen: Patches of Fog
Clouds: Parcialmente nuboso
Visibility: 10 km
2018/10/22 05:30 LECO 220530Z 00000KT 9999 BCFG NSC 13/12 Q1024 TEMPO 0800 BCFG
 
LEST - Santiago/Labacol, Spain
Distance from station: O 358km
Actualización: 22/10/2018 07:30
Despejado
Despejado
 Viento del NE
Viento: NE 6 km/h
Temperatura: 12°C
Rocío: 11°C
Humedad: 94%
Barómetro: 1024 hPa
Resumen: Despejado
Visibility: greater than 10 km
2018/10/22 05:30 LEST 220530Z 05003KT CAVOK 12/11 Q1024 NOSIG
EBBR - Brussels International Airport, Belgium
Distance from station: O 1339km
Actualización: 22/10/2018 07:50
Light drizzle, Mist, Muy nuboso
Light drizzle, Mist, Muy nuboso
 Viento del N
Viento: N 17 km/h
Temperatura: 13°C
Rocío: 12°C
Humedad: 94%
Barómetro: 1029 hPa
Resumen: Light drizzle, Mist
Clouds: Muy nuboso
Visibility: 3 km
Cloud details: Muy nuboso 152 m
Muy nuboso 213 m
2018/10/22 05:50 EBBR 220550Z 36009KT 3200 -DZ BR BKN005 BKN007 13/12 Q1029 NOSIG